sensor_id;sensor_type;location;lat;lon;timestamp;temperature;humidity
78325;DHT22;67584;51.400;6.692;2023-07-29T00:01:30;18.40;92.20
78325;DHT22;67584;51.400;6.692;2023-07-29T00:03:56;18.40;92.20
78325;DHT22;67584;51.400;6.692;2023-07-29T00:06:22;18.40;92.20
78325;DHT22;67584;51.400;6.692;2023-07-29T00:08:47;18.50;92.20
78325;DHT22;67584;51.400;6.692;2023-07-29T00:11:13;18.40;92.20
78325;DHT22;67584;51.400;6.692;2023-07-29T00:13:39;18.50;92.20
78325;DHT22;67584;51.400;6.692;2023-07-29T00:16:04;18.50;92.20
78325;DHT22;67584;51.400;6.692;2023-07-29T00:18:30;18.60;92.20
78325;DHT22;67584;51.400;6.692;2023-07-29T00:20:56;18.60;92.20
78325;DHT22;67584;51.400;6.692;2023-07-29T00:23:23;18.60;92.10
78325;DHT22;67584;51.400;6.692;2023-07-29T00:25:48;18.60;92.10
78325;DHT22;67584;51.400;6.692;2023-07-29T00:28:14;18.60;92.20
78325;DHT22;67584;51.400;6.692;2023-07-29T00:30:40;18.60;92.10
78325;DHT22;67584;51.400;6.692;2023-07-29T00:33:06;18.70;92.10
78325;DHT22;67584;51.400;6.692;2023-07-29T00:35:31;18.70;92.20
78325;DHT22;67584;51.400;6.692;2023-07-29T00:37:59;18.70;92.20
78325;DHT22;67584;51.400;6.692;2023-07-29T00:40:28;18.70;92.20
78325;DHT22;67584;51.400;6.692;2023-07-29T00:42:54;18.60;92.20
78325;DHT22;67584;51.400;6.692;2023-07-29T00:45:20;18.70;92.10
78325;DHT22;67584;51.400;6.692;2023-07-29T00:47:46;18.70;92.20
78325;DHT22;67584;51.400;6.692;2023-07-29T00:50:13;18.80;92.10
78325;DHT22;67584;51.400;6.692;2023-07-29T00:52:40;18.80;92.10
78325;DHT22;67584;51.400;6.692;2023-07-29T00:55:06;18.80;92.10
78325;DHT22;67584;51.400;6.692;2023-07-29T00:57:32;18.90;92.10
78325;DHT22;67584;51.400;6.692;2023-07-29T00:59:59;18.90;92.00
78325;DHT22;67584;51.400;6.692;2023-07-29T01:02:26;18.90;91.90
78325;DHT22;67584;51.400;6.692;2023-07-29T01:04:58;18.90;91.90
78325;DHT22;67584;51.400;6.692;2023-07-29T01:10:08;19.00;91.90
78325;DHT22;67584;51.400;6.692;2023-07-29T01:15:55;19.00;91.90
78325;DHT22;67584;51.400;6.692;2023-07-29T01:18:27;18.90;92.00
78325;DHT22;67584;51.400;6.692;2023-07-29T01:21:04;19.00;91.90
78325;DHT22;67584;51.400;6.692;2023-07-29T01:23:31;19.10;91.80
78325;DHT22;67584;51.400;6.692;2023-07-29T01:25:58;19.10;92.00
78325;DHT22;67584;51.400;6.692;2023-07-29T01:28:24;19.00;91.80
78325;DHT22;67584;51.400;6.692;2023-07-29T01:30:57;19.10;91.80
78325;DHT22;67584;51.400;6.692;2023-07-29T01:33:27;19.00;91.60
78325;DHT22;67584;51.400;6.692;2023-07-29T01:36:01;19.10;91.60
78325;DHT22;67584;51.400;6.692;2023-07-29T01:38:30;19.10;91.70
78325;DHT22;67584;51.400;6.692;2023-07-29T01:41:01;19.20;91.50
78325;DHT22;67584;51.400;6.692;2023-07-29T01:43:28;19.10;91.40
78325;DHT22;67584;51.400;6.692;2023-07-29T01:45:53;19.30;91.30
78325;DHT22;67584;51.400;6.692;2023-07-29T01:48:19;19.30;91.30
78325;DHT22;67584;51.400;6.692;2023-07-29T01:50:45;19.20;91.30
78325;DHT22;67584;51.400;6.692;2023-07-29T01:53:11;19.20;91.20
78325;DHT22;67584;51.400;6.692;2023-07-29T01:55:37;19.30;91.20
78325;DHT22;67584;51.400;6.692;2023-07-29T01:58:02;19.30;91.10
78325;DHT22;67584;51.400;6.692;2023-07-29T02:00:28;19.20;90.90
78325;DHT22;67584;51.400;6.692;2023-07-29T02:02:54;19.30;91.00
78325;DHT22;67584;51.400;6.692;2023-07-29T02:05:19;19.20;91.10
78325;DHT22;67584;51.400;6.692;2023-07-29T02:07:45;19.20;91.20
78325;DHT22;67584;51.400;6.692;2023-07-29T02:10:11;19.20;91.30
78325;DHT22;67584;51.400;6.692;2023-07-29T02:12:37;19.10;91.50
78325;DHT22;67584;51.400;6.692;2023-07-29T02:15:03;19.10;91.60
78325;DHT22;67584;51.400;6.692;2023-07-29T02:17:30;19.10;91.60
78325;DHT22;67584;51.400;6.692;2023-07-29T02:19:55;19.10;91.70
78325;DHT22;67584;51.400;6.692;2023-07-29T02:22:21;19.10;91.90
78325;DHT22;67584;51.400;6.692;2023-07-29T02:24:47;19.00;91.60
78325;DHT22;67584;51.400;6.692;2023-07-29T02:27:13;19.10;91.70
78325;DHT22;67584;51.400;6.692;2023-07-29T02:29:38;19.20;91.80
78325;DHT22;67584;51.400;6.692;2023-07-29T02:32:04;19.20;91.80
78325;DHT22;67584;51.400;6.692;2023-07-29T02:34:30;19.20;91.60
78325;DHT22;67584;51.400;6.692;2023-07-29T02:36:56;19.20;91.90
78325;DHT22;67584;51.400;6.692;2023-07-29T02:39:21;19.20;91.70
78325;DHT22;67584;51.400;6.692;2023-07-29T02:41:49;19.10;91.80
78325;DHT22;67584;51.400;6.692;2023-07-29T02:44:15;19.10;91.80
78325;DHT22;67584;51.400;6.692;2023-07-29T02:46:41;19.10;91.90
78325;DHT22;67584;51.400;6.692;2023-07-29T02:49:07;19.10;91.90
78325;DHT22;67584;51.400;6.692;2023-07-29T02:51:32;19.10;92.00
78325;DHT22;67584;51.400;6.692;2023-07-29T02:53:58;19.00;91.90
78325;DHT22;67584;51.400;6.692;2023-07-29T02:56:24;19.10;91.90
78325;DHT22;67584;51.400;6.692;2023-07-29T02:58:49;19.10;92.00
78325;DHT22;67584;51.400;6.692;2023-07-29T03:01:18;19.00;92.00
78325;DHT22;67584;51.400;6.692;2023-07-29T03:03:44;19.00;92.00
78325;DHT22;67584;51.400;6.692;2023-07-29T03:06:12;19.10;92.00
78325;DHT22;67584;51.400;6.692;2023-07-29T03:08:38;19.00;91.90
78325;DHT22;67584;51.400;6.692;2023-07-29T03:11:12;19.00;91.90
78325;DHT22;67584;51.400;6.692;2023-07-29T03:13:38;19.00;92.00
78325;DHT22;67584;51.400;6.692;2023-07-29T03:16:09;19.10;91.80
78325;DHT22;67584;51.400;6.692;2023-07-29T03:18:35;19.10;91.60
78325;DHT22;67584;51.400;6.692;2023-07-29T03:21:02;19.20;91.60
78325;DHT22;67584;51.400;6.692;2023-07-29T03:23:28;19.10;91.60
78325;DHT22;67584;51.400;6.692;2023-07-29T03:25:58;19.10;91.60
78325;DHT22;67584;51.400;6.692;2023-07-29T03:28:25;19.10;91.30
78325;DHT22;67584;51.400;6.692;2023-07-29T03:30:53;19.00;91.60
78325;DHT22;67584;51.400;6.692;2023-07-29T03:33:19;19.00;91.60
78325;DHT22;67584;51.400;6.692;2023-07-29T03:35:44;19.10;91.60
78325;DHT22;67584;51.400;6.692;2023-07-29T03:38:11;19.10;91.50
78325;DHT22;67584;51.400;6.692;2023-07-29T03:40:38;19.10;91.60
78325;DHT22;67584;51.400;6.692;2023-07-29T03:43:04;19.00;91.70
78325;DHT22;67584;51.400;6.692;2023-07-29T03:45:30;19.00;91.60
78325;DHT22;67584;51.400;6.692;2023-07-29T03:47:56;18.90;91.70
78325;DHT22;67584;51.400;6.692;2023-07-29T03:50:21;19.00;91.70
78325;DHT22;67584;51.400;6.692;2023-07-29T03:52:47;18.90;91.90
78325;DHT22;67584;51.400;6.692;2023-07-29T03:55:13;18.90;91.90
78325;DHT22;67584;51.400;6.692;2023-07-29T03:57:38;18.80;91.90
78325;DHT22;67584;51.400;6.692;2023-07-29T04:00:05;18.70;92.00
78325;DHT22;67584;51.400;6.692;2023-07-29T04:02:41;18.70;92.00
78325;DHT22;67584;51.400;6.692;2023-07-29T04:05:08;18.60;92.10
78325;DHT22;67584;51.400;6.692;2023-07-29T04:07:35;18.60;92.10
78325;DHT22;67584;51.400;6.692;2023-07-29T04:10:01;18.50;92.10
78325;DHT22;67584;51.400;6.692;2023-07-29T04:12:28;18.50;92.10
78325;DHT22;67584;51.400;6.692;2023-07-29T04:14:54;18.40;92.10
78325;DHT22;67584;51.400;6.692;2023-07-29T04:17:19;18.40;92.10
78325;DHT22;67584;51.400;6.692;2023-07-29T04:19:45;18.50;92.10
78325;DHT22;67584;51.400;6.692;2023-07-29T04:22:11;18.40;92.10
78325;DHT22;67584;51.400;6.692;2023-07-29T04:24:37;18.40;92.00
78325;DHT22;67584;51.400;6.692;2023-07-29T04:27:03;18.40;92.00
78325;DHT22;67584;51.400;6.692;2023-07-29T04:29:29;18.50;92.00
78325;DHT22;67584;51.400;6.692;2023-07-29T04:31:55;18.40;91.90
78325;DHT22;67584;51.400;6.692;2023-07-29T04:34:20;18.40;92.00
78325;DHT22;67584;51.400;6.692;2023-07-29T04:36:47;18.40;91.90
78325;DHT22;67584;51.400;6.692;2023-07-29T04:39:12;18.40;91.90
78325;DHT22;67584;51.400;6.692;2023-07-29T04:41:38;18.40;91.90
78325;DHT22;67584;51.400;6.692;2023-07-29T04:44:04;18.40;91.80
78325;DHT22;67584;51.400;6.692;2023-07-29T04:46:31;18.40;91.70
78325;DHT22;67584;51.400;6.692;2023-07-29T04:48:57;18.40;91.50
78325;DHT22;67584;51.400;6.692;2023-07-29T04:51:23;18.40;91.50
78325;DHT22;67584;51.400;6.692;2023-07-29T04:53:50;18.50;91.40
78325;DHT22;67584;51.400;6.692;2023-07-29T04:56:16;18.50;90.90
78325;DHT22;67584;51.400;6.692;2023-07-29T04:58:41;18.50;91.00
78325;DHT22;67584;51.400;6.692;2023-07-29T05:01:07;18.60;91.20
78325;DHT22;67584;51.400;6.692;2023-07-29T05:03:33;18.60;90.80
78325;DHT22;67584;51.400;6.692;2023-07-29T05:06:00;18.50;90.60
78325;DHT22;67584;51.400;6.692;2023-07-29T05:08:27;18.60;90.50
78325;DHT22;67584;51.400;6.692;2023-07-29T05:10:53;18.70;90.70
78325;DHT22;67584;51.400;6.692;2023-07-29T05:13:19;18.60;90.50
78325;DHT22;67584;51.400;6.692;2023-07-29T05:15:47;18.50;88.80
78325;DHT22;67584;51.400;6.692;2023-07-29T05:18:13;18.60;89.60
78325;DHT22;67584;51.400;6.692;2023-07-29T05:20:38;18.60;88.60
78325;DHT22;67584;51.400;6.692;2023-07-29T05:23:04;18.60;88.50
78325;DHT22;67584;51.400;6.692;2023-07-29T05:25:30;18.60;88.30
78325;DHT22;67584;51.400;6.692;2023-07-29T05:27:55;18.60;88.20
78325;DHT22;67584;51.400;6.692;2023-07-29T05:30:22;18.70;87.90
78325;DHT22;67584;51.400;6.692;2023-07-29T05:32:48;18.60;87.40
78325;DHT22;67584;51.400;6.692;2023-07-29T05:35:14;18.60;86.70
78325;DHT22;67584;51.400;6.692;2023-07-29T05:37:40;18.60;86.10
78325;DHT22;67584;51.400;6.692;2023-07-29T05:40:07;18.60;85.90
78325;DHT22;67584;51.400;6.692;2023-07-29T05:42:34;18.70;86.10
78325;DHT22;67584;51.400;6.692;2023-07-29T05:44:59;18.70;86.10
78325;DHT22;67584;51.400;6.692;2023-07-29T05:47:25;18.60;85.80
78325;DHT22;67584;51.400;6.692;2023-07-29T05:49:52;18.70;85.40
78325;DHT22;67584;51.400;6.692;2023-07-29T05:52:18;18.50;85.10
78325;DHT22;67584;51.400;6.692;2023-07-29T05:54:43;18.60;85.50
78325;DHT22;67584;51.400;6.692;2023-07-29T05:57:10;18.60;85.20
78325;DHT22;67584;51.400;6.692;2023-07-29T05:59:35;18.60;85.40
78325;DHT22;67584;51.400;6.692;2023-07-29T06:02:01;18.70;85.20
78325;DHT22;67584;51.400;6.692;2023-07-29T06:04:27;18.80;84.80
78325;DHT22;67584;51.400;6.692;2023-07-29T06:06:53;18.80;84.10
78325;DHT22;67584;51.400;6.692;2023-07-29T06:09:21;18.80;83.70
78325;DHT22;67584;51.400;6.692;2023-07-29T06:11:47;19.00;84.00
78325;DHT22;67584;51.400;6.692;2023-07-29T06:14:12;19.00;83.70
78325;DHT22;67584;51.400;6.692;2023-07-29T06:16:40;19.00;83.60
78325;DHT22;67584;51.400;6.692;2023-07-29T06:19:06;18.90;82.50
78325;DHT22;67584;51.400;6.692;2023-07-29T06:21:34;18.80;83.00
78325;DHT22;67584;51.400;6.692;2023-07-29T06:24:00;19.00;83.10
78325;DHT22;67584;51.400;6.692;2023-07-29T06:26:27;18.90;82.30
78325;DHT22;67584;51.400;6.692;2023-07-29T06:28:52;18.80;82.30
78325;DHT22;67584;51.400;6.692;2023-07-29T06:31:18;18.80;82.60
78325;DHT22;67584;51.400;6.692;2023-07-29T06:33:44;19.00;82.30
78325;DHT22;67584;51.400;6.692;2023-07-29T06:36:09;19.20;81.80
78325;DHT22;67584;51.400;6.692;2023-07-29T06:38:35;19.40;80.10
78325;DHT22;67584;51.400;6.692;2023-07-29T06:41:00;19.60;79.50
78325;DHT22;67584;51.400;6.692;2023-07-29T06:43:26;19.60;78.40
78325;DHT22;67584;51.400;6.692;2023-07-29T06:45:52;19.60;77.60
78325;DHT22;67584;51.400;6.692;2023-07-29T06:48:17;19.80;78.10
78325;DHT22;67584;51.400;6.692;2023-07-29T06:50:44;19.80;78.00
78325;DHT22;67584;51.400;6.692;2023-07-29T06:53:10;19.80;78.80
78325;DHT22;67584;51.400;6.692;2023-07-29T06:55:35;19.60;77.80
78325;DHT22;67584;51.400;6.692;2023-07-29T06:58:01;19.70;76.90
78325;DHT22;67584;51.400;6.692;2023-07-29T07:00:27;19.80;77.50
78325;DHT22;67584;51.400;6.692;2023-07-29T07:02:53;19.80;75.80
78325;DHT22;67584;51.400;6.692;2023-07-29T07:05:18;19.80;76.40
78325;DHT22;67584;51.400;6.692;2023-07-29T07:07:44;20.00;76.80
78325;DHT22;67584;51.400;6.692;2023-07-29T07:10:10;20.00;75.20
78325;DHT22;67584;51.400;6.692;2023-07-29T07:12:35;20.10;75.50
78325;DHT22;67584;51.400;6.692;2023-07-29T07:15:01;19.90;75.80
78325;DHT22;67584;51.400;6.692;2023-07-29T07:17:27;19.90;76.40
78325;DHT22;67584;51.400;6.692;2023-07-29T07:19:52;19.80;75.40
78325;DHT22;67584;51.400;6.692;2023-07-29T07:22:18;19.90;76.40
78325;DHT22;67584;51.400;6.692;2023-07-29T07:24:44;20.00;74.90
78325;DHT22;67584;51.400;6.692;2023-07-29T07:27:10;20.20;75.60
78325;DHT22;67584;51.400;6.692;2023-07-29T07:29:35;20.50;73.40
78325;DHT22;67584;51.400;6.692;2023-07-29T07:32:01;20.50;73.80
78325;DHT22;67584;51.400;6.692;2023-07-29T07:34:27;20.40;73.80
78325;DHT22;67584;51.400;6.692;2023-07-29T07:36:53;20.60;74.20
78325;DHT22;67584;51.400;6.692;2023-07-29T07:39:19;20.90;73.60
78325;DHT22;67584;51.400;6.692;2023-07-29T07:41:44;21.20;72.60
78325;DHT22;67584;51.400;6.692;2023-07-29T07:44:10;21.40;71.30
78325;DHT22;67584;51.400;6.692;2023-07-29T07:46:38;21.10;72.80
78325;DHT22;67584;51.400;6.692;2023-07-29T07:49:03;21.10;72.30
78325;DHT22;67584;51.400;6.692;2023-07-29T07:51:29;20.70;73.10
78325;DHT22;67584;51.400;6.692;2023-07-29T07:53:55;21.00;73.70
78325;DHT22;67584;51.400;6.692;2023-07-29T07:56:20;20.90;73.40
78325;DHT22;67584;51.400;6.692;2023-07-29T07:58:46;20.80;72.70
78325;DHT22;67584;51.400;6.692;2023-07-29T08:01:12;21.00;73.80
78325;DHT22;67584;51.400;6.692;2023-07-29T08:03:37;21.20;73.00
78325;DHT22;67584;51.400;6.692;2023-07-29T08:06:04;21.30;72.60
78325;DHT22;67584;51.400;6.692;2023-07-29T08:08:30;21.40;72.50
78325;DHT22;67584;51.400;6.692;2023-07-29T08:10:57;21.30;71.80
78325;DHT22;67584;51.400;6.692;2023-07-29T08:13:23;21.60;71.70
78325;DHT22;67584;51.400;6.692;2023-07-29T08:15:51;21.90;71.80
78325;DHT22;67584;51.400;6.692;2023-07-29T08:18:17;22.40;70.20
78325;DHT22;67584;51.400;6.692;2023-07-29T08:21:10;22.30;68.40
78325;DHT22;67584;51.400;6.692;2023-07-29T08:23:36;22.10;68.40
78325;DHT22;67584;51.400;6.692;2023-07-29T08:26:03;22.30;69.30
78325;DHT22;67584;51.400;6.692;2023-07-29T08:28:35;22.60;68.40
78325;DHT22;67584;51.400;6.692;2023-07-29T08:31:02;23.00;66.90
78325;DHT22;67584;51.400;6.692;2023-07-29T08:33:28;23.20;65.80
78325;DHT22;67584;51.400;6.692;2023-07-29T08:35:54;23.30;64.80
78325;DHT22;67584;51.400;6.692;2023-07-29T08:38:20;23.00;66.50
78325;DHT22;67584;51.400;6.692;2023-07-29T08:41:24;23.20;63.60
78325;DHT22;67584;51.400;6.692;2023-07-29T08:43:58;22.80;66.30
78325;DHT22;67584;51.400;6.692;2023-07-29T08:46:25;23.20;63.90
78325;DHT22;67584;51.400;6.692;2023-07-29T08:48:51;23.00;63.60
78325;DHT22;67584;51.400;6.692;2023-07-29T08:51:18;23.00;65.30
78325;DHT22;67584;51.400;6.692;2023-07-29T08:53:45;22.80;65.80
78325;DHT22;67584;51.400;6.692;2023-07-29T08:56:12;22.80;66.00
78325;DHT22;67584;51.400;6.692;2023-07-29T08:58:37;22.70;67.00
78325;DHT22;67584;51.400;6.692;2023-07-29T09:01:05;22.70;67.10
78325;DHT22;67584;51.400;6.692;2023-07-29T09:03:31;22.60;66.90
78325;DHT22;67584;51.400;6.692;2023-07-29T09:05:58;22.30;67.50
78325;DHT22;67584;51.400;6.692;2023-07-29T09:08:27;22.40;67.20
78325;DHT22;67584;51.400;6.692;2023-07-29T09:10:54;22.60;67.10
78325;DHT22;67584;51.400;6.692;2023-07-29T09:13:21;22.70;67.80
78325;DHT22;67584;51.400;6.692;2023-07-29T09:15:47;22.60;67.30
78325;DHT22;67584;51.400;6.692;2023-07-29T09:18:18;22.60;67.60
78325;DHT22;67584;51.400;6.692;2023-07-29T09:20:46;22.50;67.50
78325;DHT22;67584;51.400;6.692;2023-07-29T09:23:13;22.90;67.00
78325;DHT22;67584;51.400;6.692;2023-07-29T09:25:39;22.70;67.30
78325;DHT22;67584;51.400;6.692;2023-07-29T09:28:13;22.50;67.80
78325;DHT22;67584;51.400;6.692;2023-07-29T09:30:40;22.20;68.90
78325;DHT22;67584;51.400;6.692;2023-07-29T09:33:06;22.20;69.50
78325;DHT22;67584;51.400;6.692;2023-07-29T09:35:33;22.30;69.40
78325;DHT22;67584;51.400;6.692;2023-07-29T09:38:00;22.70;68.40
78325;DHT22;67584;51.400;6.692;2023-07-29T09:40:25;23.40;65.80
78325;DHT22;67584;51.400;6.692;2023-07-29T09:42:55;23.70;65.70
78325;DHT22;67584;51.400;6.692;2023-07-29T09:45:25;23.90;63.20
78325;DHT22;67584;51.400;6.692;2023-07-29T09:47:53;24.20;62.10
78325;DHT22;67584;51.400;6.692;2023-07-29T09:50:18;24.30;61.00
78325;DHT22;67584;51.400;6.692;2023-07-29T09:52:44;24.20;61.40
78325;DHT22;67584;51.400;6.692;2023-07-29T09:55:12;24.60;61.40
78325;DHT22;67584;51.400;6.692;2023-07-29T09:57:40;25.00;60.60
78325;DHT22;67584;51.400;6.692;2023-07-29T10:00:06;25.10;60.40
78325;DHT22;67584;51.400;6.692;2023-07-29T10:02:40;25.30;59.10
78325;DHT22;67584;51.400;6.692;2023-07-29T10:05:07;25.00;59.00
78325;DHT22;67584;51.400;6.692;2023-07-29T10:07:37;24.90;59.30
78325;DHT22;67584;51.400;6.692;2023-07-29T10:10:07;24.90;60.10
78325;DHT22;67584;51.400;6.692;2023-07-29T10:12:34;25.30;57.90
78325;DHT22;67584;51.400;6.692;2023-07-29T10:15:04;25.00;59.20
78325;DHT22;67584;51.400;6.692;2023-07-29T10:17:30;24.60;59.10
78325;DHT22;67584;51.400;6.692;2023-07-29T10:19:56;24.30;60.80
78325;DHT22;67584;51.400;6.692;2023-07-29T10:22:28;24.40;61.50
78325;DHT22;67584;51.400;6.692;2023-07-29T10:24:59;24.60;60.80
78325;DHT22;67584;51.400;6.692;2023-07-29T10:27:27;24.80;59.70
78325;DHT22;67584;51.400;6.692;2023-07-29T10:29:55;24.50;60.00
78325;DHT22;67584;51.400;6.692;2023-07-29T10:32:25;25.20;59.70
78325;DHT22;67584;51.400;6.692;2023-07-29T10:34:51;25.30;59.00
78325;DHT22;67584;51.400;6.692;2023-07-29T10:37:17;26.00;54.50
78325;DHT22;67584;51.400;6.692;2023-07-29T10:39:53;26.20;56.00
78325;DHT22;67584;51.400;6.692;2023-07-29T10:42:19;26.20;56.30
78325;DHT22;67584;51.400;6.692;2023-07-29T10:44:51;27.80;53.40
78325;DHT22;67584;51.400;6.692;2023-07-29T10:47:20;28.60;51.50
78325;DHT22;67584;51.400;6.692;2023-07-29T10:49:51;28.50;50.00
78325;DHT22;67584;51.400;6.692;2023-07-29T10:52:29;27.40;50.50
78325;DHT22;67584;51.400;6.692;2023-07-29T10:54:55;27.30;52.40
78325;DHT22;67584;51.400;6.692;2023-07-29T10:57:38;27.30;51.90
78325;DHT22;67584;51.400;6.692;2023-07-29T11:00:06;27.10;54.00
78325;DHT22;67584;51.400;6.692;2023-07-29T11:02:36;26.50;55.10
78325;DHT22;67584;51.400;6.692;2023-07-29T11:05:07;25.30;56.80
78325;DHT22;67584;51.400;6.692;2023-07-29T11:07:49;24.50;60.00
78325;DHT22;67584;51.400;6.692;2023-07-29T11:10:15;24.40;60.10
78325;DHT22;67584;51.400;6.692;2023-07-29T11:12:49;24.00;60.20
78325;DHT22;67584;51.400;6.692;2023-07-29T11:15:27;23.80;60.90
78325;DHT22;67584;51.400;6.692;2023-07-29T11:17:55;23.50;61.60
78325;DHT22;67584;51.400;6.692;2023-07-29T11:20:29;23.50;62.30
78325;DHT22;67584;51.400;6.692;2023-07-29T11:22:56;23.60;61.90
78325;DHT22;67584;51.400;6.692;2023-07-29T11:25:24;23.80;61.50
78325;DHT22;67584;51.400;6.692;2023-07-29T11:27:55;24.40;59.80
78325;DHT22;67584;51.400;6.692;2023-07-29T11:30:22;25.40;58.40
78325;DHT22;67584;51.400;6.692;2023-07-29T11:32:55;26.40;55.50
78325;DHT22;67584;51.400;6.692;2023-07-29T11:35:21;27.70;53.30
78325;DHT22;67584;51.400;6.692;2023-07-29T11:37:48;28.70;49.90
78325;DHT22;67584;51.400;6.692;2023-07-29T11:40:19;29.10;47.60
78325;DHT22;67584;51.400;6.692;2023-07-29T11:42:46;28.80;49.20
78325;DHT22;67584;51.400;6.692;2023-07-29T11:45:13;28.70;48.40
78325;DHT22;67584;51.400;6.692;2023-07-29T11:47:39;29.10;48.20
78325;DHT22;67584;51.400;6.692;2023-07-29T11:50:10;29.30;46.80
78325;DHT22;67584;51.400;6.692;2023-07-29T11:52:37;28.70;48.30
78325;DHT22;67584;51.400;6.692;2023-07-29T11:55:05;28.20;48.40
78325;DHT22;67584;51.400;6.692;2023-07-29T11:57:34;27.80;49.60
78325;DHT22;67584;51.400;6.692;2023-07-29T12:00:05;28.10;49.20
78325;DHT22;67584;51.400;6.692;2023-07-29T12:02:36;27.40;49.40
78325;DHT22;67584;51.400;6.692;2023-07-29T12:05:04;26.00;52.90
78325;DHT22;67584;51.400;6.692;2023-07-29T12:07:30;25.70;53.90
78325;DHT22;67584;51.400;6.692;2023-07-29T12:09:56;25.90;53.60
78325;DHT22;67584;51.400;6.692;2023-07-29T12:12:24;26.10;54.00
78325;DHT22;67584;51.400;6.692;2023-07-29T12:14:50;27.20;52.10
78325;DHT22;67584;51.400;6.692;2023-07-29T12:17:16;27.30;51.60
78325;DHT22;67584;51.400;6.692;2023-07-29T12:19:42;27.30;48.90
78325;DHT22;67584;51.400;6.692;2023-07-29T12:22:09;27.00;50.80
78325;DHT22;67584;51.400;6.692;2023-07-29T12:24:37;27.20;49.90
78325;DHT22;67584;51.400;6.692;2023-07-29T12:27:03;27.10;51.00
78325;DHT22;67584;51.400;6.692;2023-07-29T12:29:29;27.00;51.90
78325;DHT22;67584;51.400;6.692;2023-07-29T12:31:59;27.40;51.90
78325;DHT22;67584;51.400;6.692;2023-07-29T12:34:26;28.70;49.20
78325;DHT22;67584;51.400;6.692;2023-07-29T12:36:53;28.70;48.70
78325;DHT22;67584;51.400;6.692;2023-07-29T12:39:29;27.80;49.60
78325;DHT22;67584;51.400;6.692;2023-07-29T12:41:56;27.60;51.90
78325;DHT22;67584;51.400;6.692;2023-07-29T12:44:23;27.00;52.60
78325;DHT22;67584;51.400;6.692;2023-07-29T12:46:49;27.20;52.50
78325;DHT22;67584;51.400;6.692;2023-07-29T12:49:14;27.10;52.50
78325;DHT22;67584;51.400;6.692;2023-07-29T12:51:41;26.70;52.90
78325;DHT22;67584;51.400;6.692;2023-07-29T12:54:06;27.50;51.70
78325;DHT22;67584;51.400;6.692;2023-07-29T12:56:33;29.30;48.40
78325;DHT22;67584;51.400;6.692;2023-07-29T12:58:59;30.50;45.00
78325;DHT22;67584;51.400;6.692;2023-07-29T13:01:26;30.40;46.00
78325;DHT22;67584;51.400;6.692;2023-07-29T13:03:52;29.10;48.20
78325;DHT22;67584;51.400;6.692;2023-07-29T13:06:17;28.20;49.40
78325;DHT22;67584;51.400;6.692;2023-07-29T13:08:44;27.20;51.50
78325;DHT22;67584;51.400;6.692;2023-07-29T13:11:10;26.00;53.70
78325;DHT22;67584;51.400;6.692;2023-07-29T13:13:35;25.30;55.60
78325;DHT22;67584;51.400;6.692;2023-07-29T13:16:01;24.90;56.60
78325;DHT22;67584;51.400;6.692;2023-07-29T13:18:27;24.60;57.80
78325;DHT22;67584;51.400;6.692;2023-07-29T13:20:53;24.40;58.30
78325;DHT22;67584;51.400;6.692;2023-07-29T13:23:19;24.00;59.00
78325;DHT22;67584;51.400;6.692;2023-07-29T13:25:44;23.80;59.80
78325;DHT22;67584;51.400;6.692;2023-07-29T13:28:10;23.60;60.30
78325;DHT22;67584;51.400;6.692;2023-07-29T13:30:36;23.40;62.40
78325;DHT22;67584;51.400;6.692;2023-07-29T13:33:02;23.30;63.40
78325;DHT22;67584;51.400;6.692;2023-07-29T13:35:29;22.60;68.50
78325;DHT22;67584;51.400;6.692;2023-07-29T13:37:55;21.80;70.20
78325;DHT22;67584;51.400;6.692;2023-07-29T13:40:20;21.30;73.50
78325;DHT22;67584;51.400;6.692;2023-07-29T13:42:46;20.90;74.70
78325;DHT22;67584;51.400;6.692;2023-07-29T13:45:12;20.90;75.90
78325;DHT22;67584;51.400;6.692;2023-07-29T13:47:37;20.70;77.30
78325;DHT22;67584;51.400;6.692;2023-07-29T13:50:03;20.70;75.60
78325;DHT22;67584;51.400;6.692;2023-07-29T13:52:29;20.80;76.70
78325;DHT22;67584;51.400;6.692;2023-07-29T13:54:55;20.70;77.10
78325;DHT22;67584;51.400;6.692;2023-07-29T13:57:20;20.60;79.70
78325;DHT22;67584;51.400;6.692;2023-07-29T13:59:46;20.50;78.20
78325;DHT22;67584;51.400;6.692;2023-07-29T14:02:12;20.70;79.30
78325;DHT22;67584;51.400;6.692;2023-07-29T14:04:38;20.90;78.10
78325;DHT22;67584;51.400;6.692;2023-07-29T14:07:04;21.40;79.40
78325;DHT22;67584;51.400;6.692;2023-07-29T14:09:29;22.20;76.40
78325;DHT22;67584;51.400;6.692;2023-07-29T14:11:55;23.00;76.80
78325;DHT22;67584;51.400;6.692;2023-07-29T14:14:21;23.90;74.20
78325;DHT22;67584;51.400;6.692;2023-07-29T14:16:46;25.30;72.30
78325;DHT22;67584;51.400;6.692;2023-07-29T14:19:12;27.50;64.70
78325;DHT22;67584;51.400;6.692;2023-07-29T14:21:38;29.60;58.10
78325;DHT22;67584;51.400;6.692;2023-07-29T14:24:05;30.70;55.90
78325;DHT22;67584;51.400;6.692;2023-07-29T14:26:31;32.80;51.50
78325;DHT22;67584;51.400;6.692;2023-07-29T14:28:56;34.00;45.90
78325;DHT22;67584;51.400;6.692;2023-07-29T14:31:22;33.30;48.70
78325;DHT22;67584;51.400;6.692;2023-07-29T14:33:47;31.40;52.00
78325;DHT22;67584;51.400;6.692;2023-07-29T14:36:15;29.30;56.70
78325;DHT22;67584;51.400;6.692;2023-07-29T14:38:40;27.60;60.30
78325;DHT22;67584;51.400;6.692;2023-07-29T14:41:06;26.00;64.40
78325;DHT22;67584;51.400;6.692;2023-07-29T14:43:32;25.10;66.80
78325;DHT22;67584;51.400;6.692;2023-07-29T14:45:58;24.40;69.80
78325;DHT22;67584;51.400;6.692;2023-07-29T14:48:23;24.50;70.30
78325;DHT22;67584;51.400;6.692;2023-07-29T14:50:49;24.30;70.50
78325;DHT22;67584;51.400;6.692;2023-07-29T14:53:15;24.20;71.60
78325;DHT22;67584;51.400;6.692;2023-07-29T14:55:40;24.00;71.60
78325;DHT22;67584;51.400;6.692;2023-07-29T14:58:06;24.00;72.10
78325;DHT22;67584;51.400;6.692;2023-07-29T15:00:32;23.90;72.90
78325;DHT22;67584;51.400;6.692;2023-07-29T15:02:58;23.80;72.70
78325;DHT22;67584;51.400;6.692;2023-07-29T15:05:24;23.70;73.70
78325;DHT22;67584;51.400;6.692;2023-07-29T15:07:49;23.50;74.20
78325;DHT22;67584;51.400;6.692;2023-07-29T15:10:16;23.30;73.30
78325;DHT22;67584;51.400;6.692;2023-07-29T15:12:42;23.40;70.20
78325;DHT22;67584;51.400;6.692;2023-07-29T15:15:09;23.00;65.90
78325;DHT22;67584;51.400;6.692;2023-07-29T15:17:34;23.00;68.30
78325;DHT22;67584;51.400;6.692;2023-07-29T15:20:01;23.40;68.00
78325;DHT22;67584;51.400;6.692;2023-07-29T15:22:27;23.90;65.40
78325;DHT22;67584;51.400;6.692;2023-07-29T15:24:52;24.30;64.80
78325;DHT22;67584;51.400;6.692;2023-07-29T15:27:18;25.70;60.30
78325;DHT22;67584;51.400;6.692;2023-07-29T15:29:44;28.10;53.90
78325;DHT22;67584;51.400;6.692;2023-07-29T15:32:09;29.40;51.70
78325;DHT22;67584;51.400;6.692;2023-07-29T15:34:35;31.60;47.40